Maryland Heights, Missouri
Current Conditions -  °F | °C
As of 10:51 AM on Friday 19 Dec 2014 (Local Time) from KSTL Reporting Station
Haze Haze  
Wind Chill:   Ceiling: 6000
Heat Index:   Visibility: 5mi
Dew Point: -3°   Wind: 5mph
Humidity: 70%   Direction: 140°SE
Pressure: 30.32"   Gusts: NA
Location:  38.72°N, 90.44°W
Report Text: KSTL 191651Z 14004KT 5SM HZ SCT037 OVC060 02/M03 A3032 RMK AO2 SLP275 T00221028
Loading
Personal Weather Stations






























Interactive Weather Map New forecast layout! Learn more

10-Day Weather Forecast

Advertisements
Track Severe Weather on mobile